Terminal Aerodrome Forecast
Issued by NWS

Home | Current Version | Previous Version | Text Only | Print | Product List | Glossary On
Versions: 1 2 3 4 5 6 7 8 9 10 11 12 13 14 15 16 17 18 19 20 21 22 23 24 25 26
000
FTUS41 KBUF 281506 AAA
TAFJHW
TAF AMD
KJHW 281506Z 2815/2912 18006KT P6SM SCT040 BKN250
     FM281900 18006KT P6SM VCTS BKN050CB
     FM282200 18007KT 6SM -SHRA VCTS OVC050CB
     FM290300 17008KT 6SM -SHRA OVC035
     FM290900 23010KT P6SM VCSH OVC007
      AMD LTD TO CLD VIS AND WIND=

USA.gov is the U.S. government's official web portal to all federal, state and local government web resources and services.